Time;durP1;ratioP1;P1;durP2;ratioP2;P2;SDS_P1;SDS_P2;PMS_P1;PMS_P2;Temp;Humidity;BMP_temperature;BMP_pressure;BME280_temperature;BME280_humidity;BME280_pressure;Samples;Min_cycle;Max_cycle;Signal;HPM_P1;HPM_P2
2022/03/24 00:00:26;;;;;;;53.13;36.28;;;;;;;;;;5051570;28;20080;-87
2022/03/24 00:02:52;;;;;;;48.95;34.80;;;;;;;;;;5035590;28;20404;-87
2022/03/24 00:05:18;;;;;;;49.88;36.03;;;;;;;;;;5051925;28;20048;-86
2022/03/24 00:07:44;;;;;;;53.15;36.42;;;;;;;;;;5034864;28;20099;-87
2022/03/24 00:10:10;;;;;;;48.33;34.70;;;;;;;;;;5035104;28;20418;-87
2022/03/24 00:12:37;;;;;;;49.83;35.55;;;;;;;;;;5034794;28;20067;-87
2022/03/24 00:15:04;;;;;;;52.40;35.05;;;;;;;;;;5051932;28;20068;-87
2022/03/24 00:17:30;;;;;;;54.03;37.33;;;;;;;;;;5051513;28;20468;-87
2022/03/24 00:19:56;;;;;;;52.10;36.80;;;;;;;;;;5034619;28;20037;-87
2022/03/24 00:22:23;;;;;;;50.30;37.10;;;;;;;;;;5051248;28;20131;-87
2022/03/24 00:24:49;;;;;;;54.50;37.58;;;;;;;;;;5034403;28;20061;-87
2022/03/24 00:27:15;;;;;;;55.58;38.03;;;;;;;;;;5034534;28;20408;-87
2022/03/24 00:29:41;;;;;;;55.72;37.97;;;;;;;;;;5051379;28;20045;-87
2022/03/24 00:32:08;;;;;;;54.47;39.13;;;;;;;;;;5051298;28;20516;-87
2022/03/24 00:34:34;;;;;;;55.10;39.35;;;;;;;;;;5034323;28;20045;-86
2022/03/24 00:37:00;;;;;;;60.85;40.65;;;;;;;;;;5050579;28;20104;-87
2022/03/24 00:39:26;;;;;;;56.97;39.38;;;;;;;;;;5033796;28;20584;-87
2022/03/24 00:41:52;;;;;;;53.15;38.25;;;;;;;;;;5034209;28;20448;-87
2022/03/24 00:44:20;;;;;;;55.97;39.83;;;;;;;;;;5035322;28;20099;-87
2022/03/24 00:46:46;;;;;;;58.45;40.95;;;;;;;;;;5051043;28;20513;-87
2022/03/24 00:49:12;;;;;;;58.08;40.05;;;;;;;;;;5034059;28;20045;-86
2022/03/24 00:51:39;;;;;;;54.30;38.28;;;;;;;;;;5034041;28;20425;-86
2022/03/24 00:54:05;;;;;;;50.72;37.45;;;;;;;;;;5050630;28;20404;-87
2022/03/24 00:56:31;;;;;;;51.08;35.70;;;;;;;;;;5050588;28;20041;-86
2022/03/24 00:58:57;;;;;;;53.10;36.55;;;;;;;;;;5033881;28;20467;-86
2022/03/24 01:01:23;;;;;;;59.92;39.38;;;;;;;;;;5050524;28;20049;-86
2022/03/24 01:03:49;;;;;;;58.13;40.70;;;;;;;;;;5033863;28;20053;-87
2022/03/24 01:06:16;;;;;;;55.75;39.72;;;;;;;;;;5050525;28;20048;-86
2022/03/24 01:08:43;;;;;;;55.90;39.25;;;;;;;;;;5033680;28;20409;-86
2022/03/24 01:11:10;;;;;;;54.72;38.72;;;;;;;;;;5033727;28;20037;-86
2022/03/24 01:13:38;;;;;;;56.17;38.70;;;;;;;;;;5033645;28;20037;-86
2022/03/24 01:16:04;;;;;;;58.78;39.75;;;;;;;;;;5033565;28;20050;-87
2022/03/24 01:18:34;;;;;;;57.83;40.88;;;;;;;;;;5050217;28;20038;-86
2022/03/24 01:21:02;;;;;;;58.00;39.83;;;;;;;;;;5033557;28;20037;-86
2022/03/24 01:23:28;;;;;;;59.63;40.72;;;;;;;;;;5033723;28;20033;-86
2022/03/24 01:25:54;;;;;;;60.65;40.50;;;;;;;;;;5049821;28;20085;-86
2022/03/24 01:28:21;;;;;;;57.67;40.80;;;;;;;;;;5017096;28;20041;-86
2022/03/24 01:30:47;;;;;;;56.03;41.13;;;;;;;;;;5033287;28;20048;-86
2022/03/24 01:33:13;;;;;;;63.10;42.35;;;;;;;;;;5049889;28;20037;-86
2022/03/24 01:35:39;;;;;;;58.58;41.33;;;;;;;;;;5033481;28;20040;-86
2022/03/24 01:38:05;;;;;;;59.53;42.53;;;;;;;;;;5033639;28;20037;-86
2022/03/24 01:40:31;;;;;;;58.00;41.42;;;;;;;;;;5049823;28;20037;-86
2022/03/24 01:42:57;;;;;;;62.67;43.22;;;;;;;;;;5049703;28;20042;-86
2022/03/24 01:45:23;;;;;;;60.90;43.08;;;;;;;;;;5049594;28;20087;-87
2022/03/24 01:47:50;;;;;;;62.70;42.28;;;;;;;;;;5033073;28;20052;-86
2022/03/24 01:50:16;;;;;;;63.83;42.75;;;;;;;;;;5049293;28;20045;-86
2022/03/24 01:52:44;;;;;;;62.65;41.42;;;;;;;;;;5016436;28;20125;-86
2022/03/24 01:55:11;;;;;;;66.50;43.42;;;;;;;;;;5049691;28;20041;-87
2022/03/24 01:57:37;;;;;;;63.20;43.60;;;;;;;;;;5049422;28;20056;-87
2022/03/24 02:00:04;;;;;;;60.05;42.08;;;;;;;;;;5032758;28;20412;-87
2022/03/24 02:02:30;;;;;;;61.17;41.15;;;;;;;;;;5032720;28;20038;-87
2022/03/24 02:04:56;;;;;;;60.72;43.28;;;;;;;;;;5032984;28;20061;-87
2022/03/24 02:07:22;;;;;;;64.97;42.03;;;;;;;;;;5032615;28;20033;-87
2022/03/24 02:09:49;;;;;;;64.00;42.88;;;;;;;;;;5032680;28;20045;-87
2022/03/24 02:12:15;;;;;;;62.00;43.35;;;;;;;;;;5049366;28;20041;-87
2022/03/24 02:14:42;;;;;;;63.05;42.38;;;;;;;;;;5032534;28;20041;-86
2022/03/24 02:17:08;;;;;;;63.67;43.05;;;;;;;;;;5049096;28;20130;-86
2022/03/24 02:19:36;;;;;;;67.55;45.78;;;;;;;;;;5049305;28;20045;-87
2022/03/24 02:22:31;;;;;;;66.35;43.33;;;;;;;;;;5032736;28;20103;-86
2022/03/24 02:24:57;;;;;;;60.20;40.90;;;;;;;;;;5024043;28;20057;-86
2022/03/24 02:27:24;;;;;;;58.03;41.13;;;;;;;;;;5049219;28;20061;-86
2022/03/24 02:29:51;;;;;;;61.13;42.20;;;;;;;;;;5048737;28;20053;-86
2022/03/24 02:32:18;;;;;;;62.67;42.53;;;;;;;;;;5049118;28;20049;-87
2022/03/24 02:34:51;;;;;;;66.57;45.55;;;;;;;;;;5049112;28;20524;-86
2022/03/24 02:37:28;;;;;;;64.88;44.17;;;;;;;;;;5048801;28;20041;-87
2022/03/24 02:39:58;;;;;;;70.50;46.17;;;;;;;;;;5032281;28;20441;-86
2022/03/24 02:42:25;;;;;;;70.95;46.05;;;;;;;;;;5032221;28;20041;-86
2022/03/24 02:44:53;;;;;;;66.80;46.05;;;;;;;;;;5033181;28;20052;-86
2022/03/24 02:47:20;;;;;;;70.47;48.53;;;;;;;;;;5048897;28;20041;-86
2022/03/24 02:49:47;;;;;;;66.85;45.78;;;;;;;;;;5048749;28;20413;-86
2022/03/24 02:52:13;;;;;;;70.28;47.28;;;;;;;;;;5049494;28;20033;-86
2022/03/24 02:54:40;;;;;;;70.80;48.20;;;;;;;;;;5048862;28;20512;-87
2022/03/24 02:57:06;;;;;;;66.00;45.60;;;;;;;;;;5015773;28;20033;-86
2022/03/24 02:59:33;;;;;;;66.80;45.83;;;;;;;;;;5048557;28;20049;-86
2022/03/24 03:02:00;;;;;;;65.88;45.95;;;;;;;;;;5034621;28;20455;-86
2022/03/24 03:04:27;;;;;;;64.68;43.42;;;;;;;;;;5036043;28;20127;-86
2022/03/24 03:06:56;;;;;;;62.63;42.03;;;;;;;;;;5052921;28;20045;-86
2022/03/24 03:09:22;;;;;;;61.78;42.80;;;;;;;;;;5035862;28;20045;-86
2022/03/24 03:11:50;;;;;;;59.40;39.20;;;;;;;;;;5035900;28;20037;-86
2022/03/24 03:14:17;;;;;;;55.85;40.72;;;;;;;;;;5035885;28;20124;-86
2022/03/24 03:16:47;;;;;;;58.60;40.33;;;;;;;;;;5052699;28;20048;-86
2022/03/24 03:19:13;;;;;;;58.30;38.70;;;;;;;;;;5052680;28;20127;-86
2022/03/24 03:21:40;;;;;;;54.35;37.30;;;;;;;;;;5035975;28;20393;-86
2022/03/24 03:24:08;;;;;;;59.00;40.55;;;;;;;;;;5035661;28;20077;-86
2022/03/24 03:26:34;;;;;;;59.00;41.22;;;;;;;;;;5052148;28;20053;-86
2022/03/24 03:29:01;;;;;;;54.70;40.45;;;;;;;;;;5035755;28;20046;-86
2022/03/24 03:31:28;;;;;;;58.97;41.65;;;;;;;;;;5052384;28;20041;-86
2022/03/24 03:33:54;;;;;;;67.75;46.10;;;;;;;;;;5052464;28;20030;-86
2022/03/24 03:36:21;;;;;;;70.75;46.63;;;;;;;;;;5052093;28;20090;-86
2022/03/24 03:38:48;;;;;;;74.03;48.80;;;;;;;;;;5035851;28;20562;-86
2022/03/24 03:41:15;;;;;;;75.18;52.53;;;;;;;;;;5051969;28;20051;-86
2022/03/24 03:43:42;;;;;;;71.95;49.90;;;;;;;;;;5052228;28;20559;-87
2022/03/24 03:46:08;;;;;;;78.45;50.53;;;;;;;;;;5052268;28;20394;-86
2022/03/24 03:51:57;;;;;;;68.72;46.30;;;;;;;;;;5036547;28;20040;-86
2022/03/24 03:54:23;;;;;;;70.50;48.58;;;;;;;;;;5035416;28;20076;-86
2022/03/24 03:56:49;;;;;;;69.03;45.08;;;;;;;;;;5035081;28;20042;-86
2022/03/24 03:59:15;;;;;;;63.65;43.88;;;;;;;;;;5051638;28;20040;-86
2022/03/24 04:01:41;;;;;;;65.38;44.85;;;;;;;;;;5035011;28;20092;-86
2022/03/24 04:04:12;;;;;;;60.33;42.28;;;;;;;;;;5035197;28;20142;-86
2022/03/24 04:06:38;;;;;;;59.22;40.90;;;;;;;;;;5051573;28;20045;-86
2022/03/24 04:09:04;;;;;;;52.47;37.13;;;;;;;;;;5051636;28;20045;-86
2022/03/24 04:11:30;;;;;;;59.90;41.08;;;;;;;;;;5035053;28;20515;-86
2022/03/24 04:13:56;;;;;;;61.30;43.30;;;;;;;;;;5034704;28;20041;-86
2022/03/24 04:16:23;;;;;;;66.90;46.03;;;;;;;;;;5034990;28;20392;-86
2022/03/24 04:18:49;;;;;;;68.30;46.17;;;;;;;;;;5051549;28;20045;-85
2022/03/24 04:21:16;;;;;;;64.50;44.58;;;;;;;;;;5051577;28;20096;-86
2022/03/24 04:23:42;;;;;;;62.00;41.67;;;;;;;;;;5051480;28;20052;-86
2022/03/24 04:26:12;;;;;;;60.85;43.03;;;;;;;;;;5034442;28;20588;-86
2022/03/24 04:28:39;;;;;;;64.25;43.25;;;;;;;;;;5034717;28;20512;-86
2022/03/24 04:31:05;;;;;;;58.17;40.97;;;;;;;;;;5051344;28;20416;-85
2022/03/24 04:33:32;;;;;;;60.17;41.50;;;;;;;;;;5034475;28;20046;-86
2022/03/24 04:35:59;;;;;;;61.00;42.08;;;;;;;;;;5034348;28;20046;-86
2022/03/24 04:38:26;;;;;;;66.85;44.00;;;;;;;;;;5050983;28;20052;-86
2022/03/24 04:40:53;;;;;;;65.53;43.13;;;;;;;;;;5050851;28;20052;-86
2022/03/24 04:43:19;;;;;;;61.65;43.00;;;;;;;;;;5034501;28;20481;-85
2022/03/24 04:45:45;;;;;;;63.50;42.63;;;;;;;;;;5051052;28;20492;-86
2022/03/24 04:48:13;;;;;;;60.10;41.47;;;;;;;;;;5050933;28;20034;-86
2022/03/24 04:50:39;;;;;;;59.47;42.17;;;;;;;;;;5050549;28;20053;-85
2022/03/24 04:53:05;;;;;;;65.57;42.65;;;;;;;;;;5050914;28;20041;-86
2022/03/24 04:55:32;;;;;;;62.90;42.78;;;;;;;;;;5050886;28;20124;-86
2022/03/24 04:57:58;;;;;;;71.30;47.25;;;;;;;;;;5051091;28;20477;-85
2022/03/24 05:00:24;;;;;;;66.35;45.80;;;;;;;;;;5033909;28;20041;-86
2022/03/24 05:02:50;;;;;;;69.68;47.75;;;;;;;;;;5050791;28;20460;-86
2022/03/24 05:05:17;;;;;;;78.40;53.58;;;;;;;;;;5050373;28;20041;-86
2022/03/24 05:07:43;;;;;;;81.78;53.78;;;;;;;;;;5033771;28;20045;-85
2022/03/24 05:10:10;;;;;;;76.05;49.60;;;;;;;;;;5050387;28;20489;-86
2022/03/24 05:12:38;;;;;;;74.45;48.25;;;;;;;;;;5050612;28;20132;-86
2022/03/24 05:15:05;;;;;;;83.60;53.97;;;;;;;;;;5033605;28;20037;-86
2022/03/24 05:17:31;;;;;;;79.85;51.42;;;;;;;;;;5050486;28;20556;-85
2022/03/24 05:19:57;;;;;;;81.95;53.85;;;;;;;;;;5033536;28;20057;-86
2022/03/24 05:22:23;;;;;;;78.85;52.53;;;;;;;;;;5049962;28;20046;-86
2022/03/24 05:24:49;;;;;;;89.15;56.60;;;;;;;;;;5049206;28;20054;-86
2022/03/24 05:27:16;;;;;;;85.47;55.50;;;;;;;;;;5033359;28;20132;-85
2022/03/24 05:29:42;;;;;;;79.07;53.55;;;;;;;;;;5033207;28;20042;-85
2022/03/24 05:32:08;;;;;;;86.47;55.58;;;;;;;;;;5049605;28;20038;-86
2022/03/24 05:34:34;;;;;;;82.65;56.42;;;;;;;;;;5049904;28;20041;-85
2022/03/24 05:37:01;;;;;;;82.57;56.17;;;;;;;;;;5049736;28;20044;-85
2022/03/24 05:39:27;;;;;;;83.88;54.88;;;;;;;;;;5049776;28;20048;-85
2022/03/24 05:41:53;;;;;;;81.63;54.72;;;;;;;;;;5049930;28;20045;-85
2022/03/24 05:44:19;;;;;;;77.10;50.97;;;;;;;;;;5033219;28;20436;-85
2022/03/24 05:46:46;;;;;;;73.05;45.42;;;;;;;;;;5049619;28;20037;-85
2022/03/24 05:49:14;;;;;;;69.15;46.72;;;;;;;;;;5032962;28;20049;-85
2022/03/24 05:51:44;;;;;;;68.00;44.67;;;;;;;;;;5033191;28;20041;-85
2022/03/24 05:54:10;;;;;;;74.00;48.17;;;;;;;;;;5049441;28;20073;-85
2022/03/24 05:56:36;;;;;;;78.03;52.88;;;;;;;;;;5033286;28;20037;-85
2022/03/24 05:59:03;;;;;;;81.57;52.58;;;;;;;;;;5049676;28;20503;-85
2022/03/24 06:01:29;;;;;;;74.55;51.40;;;;;;;;;;5032885;28;20048;-85
2022/03/24 06:03:57;;;;;;;76.57;49.47;;;;;;;;;;5032760;28;20041;-85
2022/03/24 06:06:25;;;;;;;77.28;50.88;;;;;;;;;;5049425;28;20053;-85
2022/03/24 06:08:52;;;;;;;75.50;50.45;;;;;;;;;;5032817;28;20090;-85
2022/03/24 06:11:19;;;;;;;78.90;51.92;;;;;;;;;;5032591;28;20080;-85
2022/03/24 06:13:49;;;;;;;86.32;56.78;;;;;;;;;;5032497;28;20037;-85
2022/03/24 06:16:15;;;;;;;93.97;59.92;;;;;;;;;;5049388;28;20473;-86
2022/03/24 06:18:41;;;;;;;91.43;59.38;;;;;;;;;;5032767;28;20155;-86
2022/03/24 06:21:08;;;;;;;93.07;59.92;;;;;;;;;;5049191;28;20091;-84
2022/03/24 06:23:34;;;;;;;92.15;58.55;;;;;;;;;;5048946;28;20042;-84
2022/03/24 06:26:01;;;;;;;98.63;62.60;;;;;;;;;;5048730;28;20556;-85
2022/03/24 06:28:27;;;;;;;91.30;61.53;;;;;;;;;;5032531;28;20095;-85
2022/03/24 06:30:54;;;;;;;92.97;60.60;;;;;;;;;;5048627;28;20548;-85
2022/03/24 06:33:20;;;;;;;95.93;59.35;;;;;;;;;;5048533;28;20042;-84
2022/03/24 06:35:48;;;;;;;102.70;63.33;;;;;;;;;;5031441;28;20127;-84
2022/03/24 06:38:15;;;;;;;93.05;61.78;;;;;;;;;;5032114;28;20047;-85
2022/03/24 06:40:42;;;;;;;100.78;63.75;;;;;;;;;;5032190;28;20095;-85
2022/03/24 06:43:09;;;;;;;100.07;62.38;;;;;;;;;;5048732;28;20413;-84
2022/03/24 06:45:36;;;;;;;99.65;62.72;;;;;;;;;;5032126;28;20468;-85
2022/03/24 06:48:03;;;;;;;89.97;58.45;;;;;;;;;;5044180;28;20041;-84
2022/03/24 06:50:29;;;;;;;96.47;61.78;;;;;;;;;;5055541;28;20042;-84
2022/03/24 06:52:55;;;;;;;89.00;58.60;;;;;;;;;;5032128;28;20049;-85
2022/03/24 06:55:22;;;;;;;88.13;57.55;;;;;;;;;;5031856;28;20047;-84
2022/03/24 06:57:48;;;;;;;93.15;60.10;;;;;;;;;;5032016;28;20124;-84
2022/03/24 07:00:15;;;;;;;86.82;56.58;;;;;;;;;;5031734;28;20041;-84
2022/03/24 07:02:45;;;;;;;89.85;56.22;;;;;;;;;;5015680;28;20398;-84
2022/03/24 07:05:12;;;;;;;80.13;52.75;;;;;;;;;;5015361;28;20100;-84
2022/03/24 07:07:38;;;;;;;83.72;55.40;;;;;;;;;;5031758;28;20084;-84
2022/03/24 07:10:05;;;;;;;86.05;56.50;;;;;;;;;;5031723;28;20042;-84
2022/03/24 07:12:32;;;;;;;89.93;57.30;;;;;;;;;;5031945;28;20428;-84
2022/03/24 07:14:58;;;;;;;78.97;51.88;;;;;;;;;;5032004;28;20061;-84
2022/03/24 07:17:24;;;;;;;90.55;56.17;;;;;;;;;;5031792;28;20513;-84
2022/03/24 07:19:50;;;;;;;90.32;58.75;;;;;;;;;;5031326;28;20048;-86
2022/03/24 07:22:16;;;;;;;93.13;57.83;;;;;;;;;;5014821;28;20258;-86
2022/03/24 07:24:43;;;;;;;86.78;56.95;;;;;;;;;;5031201;28;20049;-85
2022/03/24 07:27:10;;;;;;;81.50;51.88;;;;;;;;;;5030108;28;20180;-85
2022/03/24 07:29:36;;;;;;;79.35;53.05;;;;;;;;;;5030240;28;20073;-86
2022/03/24 07:32:02;;;;;;;78.22;52.50;;;;;;;;;;5014629;28;20401;-86
2022/03/24 07:34:29;;;;;;;88.22;58.90;;;;;;;;;;5030651;28;20038;-86
2022/03/24 07:36:56;;;;;;;83.90;56.33;;;;;;;;;;5030621;28;20047;-86
2022/03/24 07:39:22;;;;;;;85.10;55.75;;;;;;;;;;5031083;28;20557;-85
2022/03/24 07:41:48;;;;;;;83.68;54.40;;;;;;;;;;5014622;28;20041;-86
2022/03/24 07:44:15;;;;;;;82.45;55.63;;;;;;;;;;5030267;28;20104;-86
2022/03/24 07:46:41;;;;;;;85.95;55.50;;;;;;;;;;5030432;28;20052;-86
2022/03/24 07:49:09;;;;;;;80.13;52.58;;;;;;;;;;5033756;28;20404;-86
2022/03/24 07:51:36;;;;;;;86.32;56.92;;;;;;;;;;5017173;28;20033;-86
2022/03/24 07:54:05;;;;;;;102.47;66.38;;;;;;;;;;5016829;28;20087;-86
2022/03/24 07:56:34;;;;;;;92.47;60.47;;;;;;;;;;5049829;28;20037;-86
2022/03/24 07:59:00;;;;;;;92.60;57.20;;;;;;;;;;5049769;28;20120;-86
2022/03/24 08:01:28;;;;;;;86.45;60.28;;;;;;;;;;5033082;28;20052;-86
2022/03/24 08:03:55;;;;;;;86.70;55.58;;;;;;;;;;5017631;28;20180;-86
2022/03/24 08:06:21;;;;;;;83.20;60.58;;;;;;;;;;5033952;28;20049;-86
2022/03/24 08:08:48;;;;;;;82.97;56.42;;;;;;;;;;5034167;28;20041;-87
2022/03/24 08:11:14;;;;;;;79.65;54.33;;;;;;;;;;5018027;28;20064;-87
2022/03/24 08:13:41;;;;;;;78.05;53.47;;;;;;;;;;5033682;28;20055;-86
2022/03/24 08:16:07;;;;;;;83.53;55.28;;;;;;;;;;5033740;28;20045;-87
2022/03/24 08:18:33;;;;;;;68.38;47.35;;;;;;;;;;5033536;28;20079;-87
2022/03/24 08:20:59;;;;;;;67.30;47.30;;;;;;;;;;5033171;28;20043;-86
2022/03/24 08:23:25;;;;;;;64.55;44.10;;;;;;;;;;5049811;28;20479;-86
2022/03/24 08:25:52;;;;;;;67.72;45.85;;;;;;;;;;5016313;28;20115;-86
2022/03/24 08:28:18;;;;;;;62.75;43.97;;;;;;;;;;5033415;28;20048;-86
2022/03/24 08:30:45;;;;;;;65.78;45.45;;;;;;;;;;5032737;28;20045;-87
2022/03/24 08:33:11;;;;;;;65.63;46.45;;;;;;;;;;5032474;28;20049;-87
2022/03/24 08:35:39;;;;;;;63.90;45.80;;;;;;;;;;5032650;28;20041;-87
2022/03/24 08:38:05;;;;;;;65.40;46.47;;;;;;;;;;5033076;28;20519;-87
2022/03/24 08:40:32;;;;;;;59.30;44.05;;;;;;;;;;5032897;28;20049;-88
2022/03/24 08:42:58;;;;;;;60.88;43.20;;;;;;;;;;5032550;28;20168;-87
2022/03/24 08:45:24;;;;;;;58.30;42.63;;;;;;;;;;5032335;28;20049;-87
2022/03/24 08:47:51;;;;;;;57.63;42.03;;;;;;;;;;5032121;28;20405;-87
2022/03/24 08:50:17;;;;;;;60.67;43.17;;;;;;;;;;5032417;28;20046;-87
2022/03/24 08:52:44;;;;;;;57.13;41.15;;;;;;;;;;5015889;28;20048;-87
2022/03/24 08:55:13;;;;;;;56.92;41.00;;;;;;;;;;5048826;28;20077;-87
2022/03/24 08:57:39;;;;;;;56.50;42.20;;;;;;;;;;5031790;28;20064;-87
2022/03/24 09:00:12;;;;;;;59.17;41.65;;;;;;;;;;5047972;28;20400;-87
2022/03/24 09:02:39;;;;;;;57.92;41.35;;;;;;;;;;5049160;28;20053;-87
2022/03/24 09:05:06;;;;;;;54.33;40.00;;;;;;;;;;5033265;28;20037;-89
2022/03/24 09:07:32;;;;;;;50.05;35.28;;;;;;;;;;5033896;28;20045;-88
2022/03/24 09:09:58;;;;;;;50.67;36.72;;;;;;;;;;5032512;28;20052;-87
2022/03/24 09:12:24;;;;;;;51.13;35.92;;;;;;;;;;5015963;28;20435;-88
2022/03/24 09:14:51;;;;;;;49.55;34.22;;;;;;;;;;5032412;28;20060;-88
2022/03/24 09:17:17;;;;;;;48.60;34.15;;;;;;;;;;5032305;28;20041;-87
2022/03/24 09:19:43;;;;;;;45.47;35.33;;;;;;;;;;5032004;28;20045;-88
2022/03/24 09:22:09;;;;;;;52.63;35.85;;;;;;;;;;5032448;28;20045;-87
2022/03/24 09:24:36;;;;;;;48.15;34.25;;;;;;;;;;5048758;28;20136;-87
2022/03/24 09:27:05;;;;;;;45.72;34.40;;;;;;;;;;5047904;28;20496;-88
2022/03/24 09:29:31;;;;;;;46.08;34.17;;;;;;;;;;5031574;28;20096;-88
2022/03/24 09:31:58;;;;;;;45.83;33.83;;;;;;;;;;5030711;28;20053;-89
2022/03/24 09:34:54;;;;;;;46.65;33.85;;;;;;;;;;5030964;28;20132;-89
2022/03/24 09:37:22;;;;;;;48.60;33.65;;;;;;;;;;5049574;28;20034;-89
2022/03/24 09:39:49;;;;;;;44.67;32.70;;;;;;;;;;5016602;28;20041;-89
2022/03/24 09:42:15;;;;;;;50.00;33.78;;;;;;;;;;5032923;28;20037;-90
2022/03/24 09:44:42;;;;;;;45.63;33.10;;;;;;;;;;5016697;28;20041;-89
2022/03/24 09:47:12;;;;;;;46.30;33.80;;;;;;;;;;5033100;28;20050;-89
2022/03/24 09:49:57;;;;;;;47.83;34.15;;;;;;;;;;5032426;28;20038;-90
2022/03/24 09:52:24;;;;;;;;;;;;;;;;;;5016885;28;20041;-90
2022/03/24 09:54:51;;;;;;;45.75;35.33;;;;;;;;;;5015761;28;19924;-90
2022/03/24 09:57:17;;;;;;;44.58;35.42;;;;;;;;;;5031717;28;20045;-88
2022/03/24 09:59:43;;;;;;;48.15;36.72;;;;;;;;;;5032744;28;20404;-90
2022/03/24 10:02:10;;;;;;;45.67;35.13;;;;;;;;;;5015367;28;20128;-91
2022/03/24 10:04:49;;;;;;;45.35;34.83;;;;;;;;;;5032367;28;20508;-90
2022/03/24 10:07:17;;;;;;;49.50;36.22;;;;;;;;;;5015886;28;20460;-90
2022/03/24 10:09:47;;;;;;;47.72;36.40;;;;;;;;;;5031512;28;20128;-90
2022/03/24 10:12:18;;;;;;;46.50;34.83;;;;;;;;;;5032194;28;20432;-90
2022/03/24 10:14:45;;;;;;;42.53;33.40;;;;;;;;;;5031396;28;20038;-92
2022/03/24 10:17:12;;;;;;;50.47;32.92;;;;;;;;;;5032990;28;20042;-90
2022/03/24 10:19:39;;;;;;;40.00;29.63;;;;;;;;;;5031304;28;20412;-92
2022/03/24 10:22:09;;;;;;;40.20;30.88;;;;;;;;;;5030620;28;20041;-92
2022/03/24 10:24:43;;;;;;;42.30;32.10;;;;;;;;;;5030419;28;20041;-90
2022/03/24 10:27:11;;;;;;;44.42;32.25;;;;;;;;;;5031422;28;20378;-92
2022/03/24 10:29:37;;;;;;;41.42;31.85;;;;;;;;;;5031063;28;20042;-91
2022/03/24 10:32:05;;;;;;;44.47;30.90;;;;;;;;;;5047468;28;20069;-91
2022/03/24 10:34:41;;;;;;;42.10;31.20;;;;;;;;;;5031298;28;20034;-92
2022/03/24 10:37:09;;;;;;;43.45;32.92;;;;;;;;;;5047709;28;20033;-92
2022/03/24 10:39:36;;;;;;;45.22;33.03;;;;;;;;;;5048685;28;20118;-90
2022/03/24 10:42:14;;;;;;;45.88;32.78;;;;;;;;;;5047859;28;20078;-90
2022/03/24 10:44:59;;;;;;;43.85;33.20;;;;;;;;;;5048334;28;20084;-90
2022/03/24 10:47:38;;;;;;;46.53;33.65;;;;;;;;;;5027807;28;20044;-92
2022/03/24 10:50:38;;;;;;;46.53;33.67;;;;;;;;;;4995445;28;20046;-91
2022/03/24 10:53:10;;;;;;;43.20;32.88;;;;;;;;;;5006803;28;20054;-89
2022/03/24 10:55:42;;;;;;;46.15;33.45;;;;;;;;;;5031174;28;20574;-91
2022/03/24 10:58:10;;;;;;;40.95;32.92;;;;;;;;;;5015084;28;20124;-91
2022/03/24 11:00:38;;;;;;;40.25;31.58;;;;;;;;;;5031630;28;20041;-92
2022/03/24 11:03:05;;;;;;;39.38;31.00;;;;;;;;;;5047296;28;20497;-90
2022/03/24 11:05:31;;;;;;;42.92;32.33;;;;;;;;;;5030950;28;20038;-90
2022/03/24 11:07:57;;;;;;;45.25;31.73;;;;;;;;;;5030832;28;20537;-90
2022/03/24 11:10:24;;;;;;;43.05;29.45;;;;;;;;;;5014769;28;20057;-92
2022/03/24 11:12:55;;;;;;;39.63;28.80;;;;;;;;;;5030958;28;20518;-91
2022/03/24 11:15:22;;;;;;;36.25;30.55;;;;;;;;;;5031158;28;20064;-93
2022/03/24 11:17:48;;;;;;;39.42;30.85;;;;;;;;;;5031038;28;20052;-92
2022/03/24 11:20:22;;;;;;;38.88;30.58;;;;;;;;;;5031766;28;20405;-89
2022/03/24 11:23:00;;;;;;;35.63;27.88;;;;;;;;;;5033165;28;20041;-92
2022/03/24 11:25:27;;;;;;;39.53;29.85;;;;;;;;;;5034718;28;20132;-92
2022/03/24 11:27:54;;;;;;;38.60;30.40;;;;;;;;;;5033727;28;20105;-91
2022/03/24 11:30:20;;;;;;;36.65;30.58;;;;;;;;;;5034692;28;20419;-92
2022/03/24 11:32:49;;;;;;;39.88;31.42;;;;;;;;;;5035139;28;20088;-92
2022/03/24 11:35:16;;;;;;;37.35;30.42;;;;;;;;;;5034929;28;20437;-91
2022/03/24 11:37:42;;;;;;;38.42;28.92;;;;;;;;;;5034862;28;20465;-92
2022/03/24 11:40:18;;;;;;;32.95;27.77;;;;;;;;;;5035468;28;20378;-91
2022/03/24 11:42:52;;;;;;;36.38;29.15;;;;;;;;;;5018317;28;20048;-92
2022/03/24 11:45:28;;;;;;;43.20;29.93;;;;;;;;;;5034351;28;20041;-90
2022/03/24 11:48:01;;;;;;;38.35;30.15;;;;;;;;;;5034426;28;20045;-92
2022/03/24 11:50:56;;;;;;;38.70;30.25;;;;;;;;;;5033882;28;20053;-92
2022/03/24 11:53:25;;;;;;;33.63;28.75;;;;;;;;;;5030578;28;20049;-89
2022/03/24 11:56:01;;;;;;;36.05;29.33;;;;;;;;;;5034142;28;20497;-90
2022/03/24 11:58:27;;;;;;;37.13;29.08;;;;;;;;;;5033862;28;20041;-89
2022/03/24 12:00:54;;;;;;;35.50;29.08;;;;;;;;;;5017828;28;20053;-88
2022/03/24 12:03:40;;;;;;;38.95;29.73;;;;;;;;;;5032220;28;20045;-90
2022/03/24 12:06:06;;;;;;;36.60;28.17;;;;;;;;;;5017139;28;20559;-89
2022/03/24 12:08:43;;;;;;;33.67;26.55;;;;;;;;;;5032447;28;20041;-91
2022/03/24 12:11:28;;;;;;;34.80;26.38;;;;;;;;;;5049737;28;20045;-89
2022/03/24 12:13:55;;;;;;;33.45;25.33;;;;;;;;;;5033476;28;20045;-90
2022/03/24 12:16:24;;;;;;;32.25;26.63;;;;;;;;;;5033632;28;20453;-90
2022/03/24 12:18:50;;;;;;;36.83;28.83;;;;;;;;;;5023516;28;20038;-91
2022/03/24 12:21:21;;;;;;;37.10;26.83;;;;;;;;;;5013090;28;20449;-90
2022/03/24 12:24:02;;;;;;;33.63;24.92;;;;;;;;;;5030956;28;20068;-89
2022/03/24 12:26:29;;;;;;;36.55;26.27;;;;;;;;;;5032948;28;20143;-90
2022/03/24 12:29:25;;;;;;;35.30;26.25;;;;;;;;;;5016621;28;20511;-89
2022/03/24 12:32:01;;;;;;;39.45;31.15;;;;;;;;;;5012448;28;20041;-90
2022/03/24 12:34:44;;;;;;;38.15;29.45;;;;;;;;;;5032611;28;20036;-89
2022/03/24 12:37:29;;;;;;;41.03;30.58;;;;;;;;;;5033596;28;20042;-92
2022/03/24 12:39:55;;;;;;;;;;;;;;;;;;5032498;28;20509;-90
2022/03/24 12:42:21;;;;;;;39.45;29.20;;;;;;;;;;5031823;28;20376;-92
2022/03/24 12:44:52;;;;;;;41.65;30.05;;;;;;;;;;5033503;28;20041;-91
2022/03/24 12:47:38;;;;;;;35.53;28.75;;;;;;;;;;5017034;28;20037;-90
2022/03/24 12:50:16;;;;;;;34.67;28.13;;;;;;;;;;5033502;28;20052;-92
2022/03/24 12:52:50;;;;;;;35.40;27.75;;;;;;;;;;5032595;28;20080;-92
2022/03/24 12:55:32;;;;;;;34.03;27.92;;;;;;;;;;5029555;28;20056;-91
2022/03/24 12:57:59;;;;;;;37.17;30.08;;;;;;;;;;5048518;28;20052;-90
2022/03/24 13:00:27;;;;;;;34.97;29.77;;;;;;;;;;5015635;28;20077;-91
2022/03/24 13:02:54;;;;;;;38.38;29.83;;;;;;;;;;5033473;28;20041;-89
2022/03/24 13:05:30;;;;;;;35.70;29.52;;;;;;;;;;5032186;28;20176;-91
2022/03/24 13:07:57;;;;;;;35.92;29.42;;;;;;;;;;5030367;28;20163;-91
2022/03/24 13:10:25;;;;;;;36.10;29.73;;;;;;;;;;5031668;28;20118;-91
2022/03/24 13:12:54;;;;;;;39.38;31.05;;;;;;;;;;5049022;28;20160;-90
2022/03/24 13:15:21;;;;;;;36.88;30.52;;;;;;;;;;5048451;28;20493;-89
2022/03/24 13:17:51;;;;;;;36.97;31.10;;;;;;;;;;5049094;28;20411;-90
2022/03/24 13:20:18;;;;;;;41.55;33.28;;;;;;;;;;5048464;28;20045;-91
2022/03/24 13:22:48;;;;;;;37.28;32.13;;;;;;;;;;5031887;28;20046;-90
2022/03/24 13:25:15;;;;;;;37.88;32.63;;;;;;;;;;5030978;28;20493;-90
2022/03/24 13:27:46;;;;;;;40.20;31.45;;;;;;;;;;5015539;28;20075;-90
2022/03/24 13:30:14;;;;;;;39.33;32.17;;;;;;;;;;5048349;28;20493;-90
2022/03/24 13:32:41;;;;;;;39.97;32.58;;;;;;;;;;5047894;28;20152;-90
2022/03/24 13:35:09;;;;;;;45.67;33.45;;;;;;;;;;5047781;28;20038;-92
2022/03/24 13:37:37;;;;;;;41.20;32.60;;;;;;;;;;5048603;28;20442;-91
2022/03/24 13:40:04;;;;;;;41.97;34.08;;;;;;;;;;5032417;28;20045;-90
2022/03/24 13:42:31;;;;;;;43.00;31.98;;;;;;;;;;5016212;28;20092;-90
2022/03/24 13:44:57;;;;;;;44.10;33.63;;;;;;;;;;5031503;28;20055;-90
2022/03/24 13:47:25;;;;;;;43.97;33.80;;;;;;;;;;5015004;28;20096;-91
2022/03/24 13:49:56;;;;;;;40.30;33.50;;;;;;;;;;5032057;28;20041;-91
2022/03/24 13:52:37;;;;;;;48.15;35.50;;;;;;;;;;5047734;28;20051;-89
2022/03/24 13:55:04;;;;;;;46.58;36.63;;;;;;;;;;5031829;28;20041;-90
2022/03/24 13:57:30;;;;;;;48.17;36.08;;;;;;;;;;5047997;28;20046;-91
2022/03/24 13:59:56;;;;;;;45.00;36.42;;;;;;;;;;5032511;28;20037;-89
2022/03/24 14:02:27;;;;;;;45.58;37.92;;;;;;;;;;5030933;28;20049;-90
2022/03/24 14:05:22;;;;;;;46.17;38.92;;;;;;;;;;5047275;28;20057;-90
2022/03/24 14:08:01;;;;;;;42.30;36.30;;;;;;;;;;5026357;28;20148;-91
2022/03/24 14:10:46;;;;;;;45.00;36.60;;;;;;;;;;5031151;28;20046;-92
2022/03/24 14:13:22;;;;;;;48.60;38.67;;;;;;;;;;5031981;28;20512;-91
2022/03/24 14:15:50;;;;;;;44.58;37.08;;;;;;;;;;5031932;28;20037;-90
2022/03/24 14:18:17;;;;;;;46.53;36.83;;;;;;;;;;5015961;28;20062;-92
2022/03/24 14:20:43;;;;;;;44.20;37.15;;;;;;;;;;5032077;28;20397;-93
2022/03/24 14:23:10;;;;;;;40.63;33.78;;;;;;;;;;5032915;28;20048;-91
2022/03/24 14:25:37;;;;;;;42.00;34.97;;;;;;;;;;5015715;28;20080;-92
2022/03/24 14:28:03;;;;;;;47.00;38.42;;;;;;;;;;5033278;28;20045;-92